Time;durP1;ratioP1;P1;durP2;ratioP2;P2;SDS_P1;SDS_P2;PMS_P1;PMS_P2;Temp;Humidity;BMP_temperature;BMP_pressure;BME280_temperature;BME280_humidity;BME280_pressure;Samples;Min_cycle;Max_cycle;Signal;HPM_P1;HPM_P2
2022/09/05 00:02:00;;;;;;;6.37;3.00;;;18.60;99.90;;;;;;5044677;28;20791;-69
2022/09/05 00:04:53;;;;;;;2.87;2.67;;;18.60;99.90;;;;;;5055266;28;20392;-70
2022/09/05 00:07:30;;;;;;;4.67;2.70;;;18.40;99.90;;;;;;5056190;28;20396;-69
2022/09/05 00:10:14;;;;;;;5.47;2.83;;;18.40;99.90;;;;;;5055621;28;20433;-70
2022/09/05 00:12:41;;;;;;;4.87;3.00;;;18.40;99.90;;;;;;5054992;28;20538;-70
2022/09/05 00:15:15;;;;;;;2.90;2.63;;;18.30;99.90;;;;;;5055267;28;20413;-70
2022/09/05 00:17:52;;;;;;;5.67;2.73;;;18.30;99.90;;;;;;5055424;28;20384;-70
2022/09/05 00:20:29;;;;;;;5.23;2.90;;;18.20;99.90;;;;;;5055067;28;20384;-69
2022/09/05 00:23:27;;;;;;;7.80;3.30;;;18.20;99.90;;;;;;5055266;28;20427;-69
2022/09/05 00:26:17;;;;;;;5.13;3.60;;;18.10;99.90;;;;;;5031844;28;20431;-69
2022/09/05 00:29:24;;;;;;;3.23;2.67;;;18.00;99.90;;;;;;5054637;28;20390;-69
2022/09/05 00:32:05;;;;;;;3.13;2.80;;;18.00;99.90;;;;;;5055037;28;20452;-69
2022/09/05 00:34:50;;;;;;;3.43;3.13;;;18.10;99.90;;;;;;5054775;28;20906;-69
2022/09/05 00:37:46;;;;;;;4.00;2.90;;;18.10;99.90;;;;;;5048011;28;20840;-69
2022/09/05 00:40:19;;;;;;;2.60;2.40;;;18.20;99.90;;;;;;5026891;28;20414;-69
2022/09/05 00:42:48;;;;;;;2.63;2.43;;;18.30;99.90;;;;;;5034416;28;20444;-69
2022/09/05 00:45:24;;;;;;;4.23;3.07;;;18.20;99.90;;;;;;5034266;28;20431;-70
2022/09/05 00:48:24;;;;;;;3.10;2.70;;;18.20;99.90;;;;;;5034650;28;20385;-69
2022/09/05 00:51:14;;;;;;;4.10;3.47;;;17.90;99.90;;;;;;5027312;28;20424;-70
2022/09/05 00:53:56;;;;;;;3.60;3.00;;;17.90;99.90;;;;;;5034296;28;20484;-70
2022/09/05 00:56:43;;;;;;;2.73;2.40;;;18.00;99.90;;;;;;5045599;28;20912;-70
2022/09/05 00:59:38;;;;;;;3.07;2.77;;;17.90;99.90;;;;;;5053914;28;20452;-70
2022/09/05 01:02:41;;;;;;;4.33;2.80;;;18.00;99.90;;;;;;5054252;28;20753;-70
2022/09/05 01:05:30;;;;;;;2.53;2.30;;;17.90;99.90;;;;;;5054077;28;20442;-70
2022/09/05 01:08:26;;;;;;;3.10;2.50;;;17.80;99.90;;;;;;5054495;28;20742;-69
2022/09/05 01:11:06;;;;;;;4.13;3.17;;;17.80;99.90;;;;;;5053773;28;20433;-69
2022/09/05 01:13:47;;;;;;;3.37;2.70;;;17.90;99.90;;;;;;5053741;28;20547;-69
2022/09/05 01:16:34;;;;;;;4.57;3.00;;;17.90;99.90;;;;;;5053933;28;20396;-70
2022/09/05 01:19:46;;;;;;;3.47;2.53;;;17.70;99.90;;;;;;5054290;28;20856;-69
2022/09/05 01:22:33;;;;;;;5.13;2.93;;;17.70;99.90;;;;;;5052938;28;20772;-70
2022/09/05 01:25:13;;;;;;;5.10;2.90;;;17.60;99.90;;;;;;5053747;28;20451;-69
2022/09/05 01:28:14;;;;;;;4.83;3.27;;;17.60;99.90;;;;;;5053431;28;20384;-68
2022/09/05 01:30:45;;;;;;;5.33;2.80;;;17.70;99.90;;;;;;5052193;28;20427;-69
2022/09/05 01:33:38;;;;;;;3.70;2.80;;;17.80;99.90;;;;;;5053431;28;20994;-70
2022/09/05 01:36:28;;;;;;;2.90;2.70;;;17.80;99.90;;;;;;5053300;28;20483;-70
2022/09/05 01:39:07;;;;;;;3.43;2.93;;;17.70;99.90;;;;;;5052762;28;20463;-70
2022/09/05 01:41:59;;;;;;;2.97;2.70;;;17.70;99.90;;;;;;5053583;28;20762;-70
2022/09/05 01:44:46;;;;;;;2.87;2.67;;;17.70;99.90;;;;;;5053135;28;20400;-70
2022/09/05 01:47:45;;;;;;;4.20;2.30;;;17.80;99.90;;;;;;5053190;28;20450;-69
2022/09/05 01:50:39;;;;;;;3.27;3.00;;;17.90;99.90;;;;;;5053400;28;20439;-69
2022/09/05 01:53:40;;;;;;;2.87;2.60;;;17.90;99.90;;;;;;5052898;28;20534;-69
2022/09/05 01:56:24;;;;;;;4.73;3.03;;;17.90;99.90;;;;;;5053262;28;20417;-69
2022/09/05 01:58:58;;;;;;;5.20;3.20;;;17.90;99.90;;;;;;5053077;28;20393;-69
2022/09/05 02:01:42;;;;;;;3.93;2.67;;;17.90;99.90;;;;;;5053331;28;20482;-68
2022/09/05 02:04:26;;;;;;;6.07;3.10;;;17.90;99.90;;;;;;5053582;28;20987;-69
2022/09/05 02:07:11;;;;;;;3.60;3.30;;;17.80;99.90;;;;;;5053329;28;20423;-69
2022/09/05 02:10:06;;;;;;;3.73;3.30;;;17.50;99.90;;;;;;5051684;28;20405;-69
2022/09/05 02:12:54;;;;;;;2.73;2.47;;;17.50;99.90;;;;;;5053091;28;20462;-69
2022/09/05 02:15:27;;;;;;;3.47;3.17;;;17.50;99.90;;;;;;5053281;28;20799;-69
2022/09/05 02:18:03;;;;;;;4.07;2.80;;;17.50;99.90;;;;;;5053220;28;20867;-69
2022/09/05 02:20:31;;;;;;;4.83;3.33;;;17.40;99.90;;;;;;5053422;28;20401;-69
2022/09/05 02:23:01;;;;;;;3.60;2.73;;;17.40;99.90;;;;;;5053018;28;20433;-69
2022/09/05 02:25:39;;;;;;;3.93;2.80;;;17.40;99.90;;;;;;5052720;28;20433;-69
2022/09/05 02:28:23;;;;;;;4.10;3.20;;;17.40;99.90;;;;;;5052825;28;20763;-70
2022/09/05 02:30:55;;;;;;;4.05;2.60;;;17.30;99.90;;;;;;5052978;28;20491;-69
2022/09/05 02:33:31;;;;;;;3.63;3.33;;;17.20;99.90;;;;;;5054070;28;20838;-69
2022/09/05 02:36:26;;;;;;;3.47;2.80;;;17.30;99.90;;;;;;5056929;28;20394;-69
2022/09/05 02:38:54;;;;;;;7.70;3.10;;;17.40;99.90;;;;;;5077905;23;20384;-70
2022/09/05 02:41:54;;;;;;;4.20;3.10;;;17.40;99.90;;;;;;5016413;28;20398;-70
2022/09/05 02:44:39;;;;;;;4.80;2.83;;;17.40;99.90;;;;;;5015974;28;20406;-69
2022/09/05 02:47:21;;;;;;;3.10;2.90;;;17.40;99.90;;;;;;5015841;28;20398;-69
2022/09/05 02:50:12;;;;;;;3.63;2.93;;;17.30;99.90;;;;;;5015990;28;20992;-69
2022/09/05 02:52:42;;;;;;;3.27;2.97;;;17.30;99.90;;;;;;5015957;28;20460;-69
2022/09/05 02:55:36;;;;;;;3.00;2.80;;;17.40;99.90;;;;;;5015395;28;20398;-69
2022/09/05 02:58:07;;;;;;;4.17;3.20;;;17.40;99.90;;;;;;5014548;28;20452;-69
2022/09/05 03:00:45;;;;;;;3.40;2.77;;;17.40;99.90;;;;;;5015255;28;20495;-69
2022/09/05 03:03:33;;;;;;;3.90;3.30;;;17.40;99.90;;;;;;5015762;28;20394;-70
2022/09/05 03:06:26;;;;;;;3.30;3.00;;;17.40;99.90;;;;;;5014670;28;20489;-69
2022/09/05 03:09:24;;;;;;;3.53;3.23;;;17.30;99.90;;;;;;5015772;28;20859;-69
2022/09/05 03:12:08;;;;;;;3.33;3.03;;;17.30;99.90;;;;;;5015189;28;20461;-70
2022/09/05 03:14:36;;;;;;;3.60;3.30;;;17.30;99.90;;;;;;5015455;28;20467;-69
2022/09/05 03:17:33;;;;;;;5.17;3.10;;;17.20;99.90;;;;;;5015239;28;20409;-69
2022/09/05 03:20:31;;;;;;;3.70;3.20;;;17.10;99.90;;;;;;5015238;28;20441;-69
2022/09/05 03:23:19;;;;;;;3.40;3.10;;;17.00;99.90;;;;;;5015519;28;20393;-69
2022/09/05 03:26:09;;;;;;;4.27;3.87;;;16.90;99.90;;;;;;5015749;28;20401;-68
2022/09/05 03:29:03;;;;;;;6.37;3.00;;;16.90;99.90;;;;;;5013923;28;20405;-69
2022/09/05 03:32:11;;;;;;;3.60;3.30;;;17.00;99.90;;;;;;4992423;28;20837;-69
2022/09/05 03:35:13;;;;;;;4.20;3.13;;;17.00;99.90;;;;;;4995767;28;20511;-69
2022/09/05 03:38:09;;;;;;;3.03;2.73;;;17.00;99.90;;;;;;5015566;28;20386;-68
2022/09/05 03:41:05;;;;;;;3.57;2.90;;;17.20;99.90;;;;;;5014934;28;20466;-69
2022/09/05 03:43:46;;;;;;;3.33;3.03;;;17.30;99.90;;;;;;5013212;28;20414;-68
2022/09/05 03:46:33;;;;;;;3.67;3.37;;;17.20;99.90;;;;;;5014522;28;20862;-68
2022/09/05 03:49:38;;;;;;;3.73;3.43;;;17.20;99.90;;;;;;5015391;28;20909;-70
2022/09/05 03:52:33;;;;;;;2.87;2.67;;;17.20;99.90;;;;;;5015309;28;20865;-69
2022/09/05 03:55:25;;;;;;;3.30;3.00;;;17.20;99.90;;;;;;5014869;28;20394;-69
2022/09/05 03:58:12;;;;;;;4.07;3.07;;;17.20;99.90;;;;;;5013329;28;20458;-69
2022/09/05 04:00:42;;;;;;;4.40;3.60;;;17.10;99.90;;;;;;5014747;28;20787;-69
2022/09/05 04:03:10;;;;;;;5.00;3.30;;;17.10;99.90;;;;;;5014654;28;20404;-70
2022/09/05 04:06:12;;;;;;;3.17;2.50;;;17.00;99.90;;;;;;5014559;28;20460;-70
2022/09/05 04:08:55;;;;;;;3.63;3.30;;;17.00;99.90;;;;;;4992189;28;20467;-70
2022/09/05 04:11:37;;;;;;;4.57;3.10;;;17.00;99.90;;;;;;5014512;28;20442;-70
2022/09/05 04:14:23;;;;;;;4.30;3.90;;;16.90;99.90;;;;;;5014447;28;20458;-67
2022/09/05 04:17:01;;;;;;;4.27;3.40;;;16.90;99.90;;;;;;5014309;28;20894;-70
2022/09/05 04:19:27;;;;;;;3.33;3.03;;;16.80;99.90;;;;;;5014550;28;20418;-69
2022/09/05 04:22:21;;;;;;;5.00;3.80;;;16.80;99.90;;;;;;5014416;28;20500;-68
2022/09/05 04:24:50;;;;;;;4.00;3.37;;;16.80;99.90;;;;;;5013967;28;20266;-68
2022/09/05 04:27:47;;;;;;;4.10;3.20;;;16.80;99.90;;;;;;5013812;28;20722;-68
2022/09/05 04:30:31;;;;;;;5.40;3.63;;;16.80;99.90;;;;;;5013987;28;20417;-69
2022/09/05 04:33:05;;;;;;;4.00;3.70;;;16.80;99.90;;;;;;5013815;28;20440;-68
2022/09/05 04:35:36;;;;;;;4.20;3.47;;;16.80;99.90;;;;;;5013855;28;20434;-68
2022/09/05 04:38:36;;;;;;;9.73;3.60;;;16.80;99.90;;;;;;5013897;28;20378;-68
2022/09/05 04:41:13;;;;;;;6.03;3.73;;;16.70;99.90;;;;;;5013484;28;20442;-68
2022/09/05 04:43:52;;;;;;;5.13;3.10;;;16.80;99.90;;;;;;5013569;28;20461;-69
2022/09/05 04:46:29;;;;;;;3.67;3.17;;;16.90;99.90;;;;;;5014647;28;20384;-68
2022/09/05 04:49:17;;;;;;;4.57;3.90;;;16.90;99.90;;;;;;5014217;28;20884;-68
2022/09/05 04:51:43;;;;;;;3.63;3.13;;;17.00;99.90;;;;;;5013948;28;20457;-69
2022/09/05 04:54:57;;;;;;;3.53;3.03;;;17.00;99.90;;;;;;5013393;28;20895;-69
2022/09/05 04:57:59;;;;;;;4.07;3.30;;;17.10;99.90;;;;;;5011046;28;20202;-69
2022/09/05 05:00:41;;;;;;;5.67;3.20;;;17.00;99.90;;;;;;5013702;28;20949;-69
2022/09/05 05:03:16;;;;;;;3.57;3.27;;;17.10;99.90;;;;;;5013285;28;20477;-69
2022/09/05 05:05:48;;;;;;;4.93;4.07;;;17.10;99.90;;;;;;5013196;28;20807;-69
2022/09/05 05:08:38;;;;;;;3.67;3.30;;;17.10;99.90;;;;;;5013180;28;20445;-69
2022/09/05 05:11:11;;;;;;;3.57;3.23;;;17.10;99.90;;;;;;5013509;28;20449;-69
2022/09/05 05:13:54;;;;;;;3.93;3.53;;;17.00;99.90;;;;;;5016425;28;20418;-69
2022/09/05 05:16:31;;;;;;;4.10;3.70;;;17.10;99.90;;;;;;5013529;28;20501;-69
2022/09/05 05:19:13;;;;;;;4.23;3.83;;;17.10;99.90;;;;;;5013254;28;20389;-69
2022/09/05 05:21:44;;;;;;;3.70;3.40;;;16.90;99.90;;;;;;5012916;28;20394;-69
2022/09/05 05:24:16;;;;;;;3.83;3.37;;;17.00;99.90;;;;;;5013008;28;20406;-69
2022/09/05 05:26:54;;;;;;;2.93;2.73;;;17.10;99.90;;;;;;5012832;28;20417;-69
2022/09/05 05:29:37;;;;;;;3.80;3.50;;;17.20;99.90;;;;;;5013199;28;20441;-69
2022/09/05 05:32:04;;;;;;;3.40;3.07;;;17.20;99.90;;;;;;5013366;28;20588;-69
2022/09/05 05:34:45;;;;;;;5.30;3.53;;;17.20;99.90;;;;;;5012887;28;20415;-69
2022/09/05 05:37:32;;;;;;;3.90;3.20;;;17.30;99.90;;;;;;5013416;28;20416;-68
2022/09/05 05:40:15;;;;;;;3.63;3.33;;;17.40;99.90;;;;;;5012602;28;20463;-68
2022/09/05 05:42:42;;;;;;;3.83;3.43;;;17.40;99.90;;;;;;4993292;28;20395;-68
2022/09/05 05:45:18;;;;;;;3.83;3.43;;;17.40;99.90;;;;;;4993456;28;20422;-66
2022/09/05 05:47:48;;;;;;;6.23;3.90;;;17.40;99.90;;;;;;4993341;28;20426;-68
2022/09/05 05:50:37;;;;;;;4.63;3.47;;;17.50;99.90;;;;;;4993190;28;20823;-68
2022/09/05 05:53:27;;;;;;;4.10;3.07;;;17.60;99.90;;;;;;4993274;28;20506;-68
2022/09/05 05:56:13;;;;;;;4.23;3.30;;;17.60;99.90;;;;;;4993365;28;20386;-68
2022/09/05 05:59:06;;;;;;;3.93;3.57;;;17.60;99.90;;;;;;5011623;28;20544;-67
2022/09/05 06:02:09;;;;;;;3.60;3.30;;;17.60;99.90;;;;;;5013034;28;20402;-69
2022/09/05 06:04:37;;;;;;;4.40;4.00;;;17.70;99.90;;;;;;5013156;28;20434;-69
2022/09/05 06:07:24;;;;;;;4.13;3.73;;;17.80;99.90;;;;;;5012790;28;20439;-69
2022/09/05 06:09:58;;;;;;;4.27;2.97;;;17.80;99.90;;;;;;5016600;28;20440;-69
2022/09/05 06:13:01;;;;;;;7.93;4.10;;;17.90;99.90;;;;;;5016578;28;20530;-68
2022/09/05 06:15:42;;;;;;;3.90;3.17;;;17.90;99.90;;;;;;5017425;28;20407;-68
2022/09/05 06:18:32;;;;;;;3.73;3.43;;;18.00;99.90;;;;;;5017330;28;20424;-68
2022/09/05 06:21:23;;;;;;;3.77;3.47;;;18.10;99.90;;;;;;5017280;28;20458;-67
2022/09/05 06:24:06;;;;;;;5.43;3.30;;;18.20;99.90;;;;;;5011754;28;20794;-68
2022/09/05 06:26:41;;;;;;;4.07;3.70;;;18.30;99.90;;;;;;4999385;28;20381;-69
2022/09/05 06:29:31;;;;;;;4.20;3.73;;;18.30;99.90;;;;;;5016776;28;20436;-69
2022/09/05 06:32:16;;;;;;;4.83;3.30;;;18.40;99.90;;;;;;5016773;28;20986;-69
2022/09/05 06:34:52;;;;;;;3.80;3.50;;;18.50;99.90;;;;;;5015571;28;20756;-69
2022/09/05 06:37:40;;;;;;;5.00;3.57;;;18.60;99.90;;;;;;5016316;28;20391;-69
2022/09/05 06:40:19;;;;;;;4.20;3.80;;;18.70;99.90;;;;;;5016668;28;20500;-69
2022/09/05 06:43:06;;;;;;;3.53;3.23;;;18.90;99.90;;;;;;5017772;28;20422;-69
2022/09/05 06:45:34;;;;;;;3.70;3.40;;;19.00;99.90;;;;;;5020187;28;20387;-69
2022/09/05 06:48:19;;;;;;;3.70;3.40;;;19.10;99.90;;;;;;5021514;28;20414;-69
2022/09/05 06:51:22;;;;;;;4.03;3.40;;;19.20;99.90;;;;;;5021662;28;20476;-69
2022/09/05 06:54:02;;;;;;;3.93;3.53;;;19.40;99.90;;;;;;5026249;28;20438;-69
2022/09/05 06:56:43;;;;;;;3.20;2.93;;;19.50;99.90;;;;;;5031498;28;20393;-71
2022/09/05 06:59:51;;;;;;;3.70;2.93;;;19.70;99.90;;;;;;5031262;28;20433;-69
2022/09/05 07:02:33;;;;;;;5.87;3.57;;;19.80;99.90;;;;;;5017177;28;20410;-69
2022/09/05 07:05:27;;;;;;;4.33;3.93;;;19.90;99.90;;;;;;5016739;28;20380;-69
2022/09/05 07:08:34;;;;;;;4.40;4.10;;;19.90;99.90;;;;;;5017030;28;20401;-70
2022/09/05 07:11:07;;;;;;;4.73;4.23;;;20.10;99.90;;;;;;4986912;28;20431;-70
2022/09/05 07:13:53;;;;;;;5.10;4.13;;;20.10;99.90;;;;;;5016121;28;20395;-69
2022/09/05 07:16:35;;;;;;;6.87;3.50;;;20.20;99.90;;;;;;5016317;28;20904;-69
2022/09/05 07:19:29;;;;;;;3.80;3.50;;;20.40;99.90;;;;;;5016214;28;20791;-69
2022/09/05 07:21:55;;;;;;;4.73;3.40;;;20.40;99.90;;;;;;5015846;28;20434;-70
2022/09/05 07:24:26;;;;;;;9.80;4.23;;;20.60;99.90;;;;;;5014472;28;20411;-69
2022/09/05 07:26:56;;;;;;;12.53;4.93;;;20.80;99.90;;;;;;5015450;28;20546;-69
2022/09/05 07:29:36;;;;;;;3.97;3.57;;;20.90;99.90;;;;;;5015593;28;20458;-69
2022/09/05 07:32:05;;;;;;;5.77;3.70;;;21.00;99.90;;;;;;5015367;28;20936;-70
2022/09/05 07:34:34;;;;;;;6.83;3.70;;;21.20;99.90;;;;;;5015523;28;20903;-70
2022/09/05 07:37:05;;;;;;;4.23;3.80;;;21.30;99.90;;;;;;5015594;28;20403;-69
2022/09/05 07:39:42;;;;;;;4.23;3.40;;;21.20;99.90;;;;;;5014910;28;20450;-69
2022/09/05 07:42:19;;;;;;;5.93;3.80;;;20.90;99.90;;;;;;5015053;28;20790;-69
2022/09/05 07:44:55;;;;;;;3.70;3.30;;;20.70;99.90;;;;;;5015360;28;20827;-69
2022/09/05 07:47:27;;;;;;;4.33;3.93;;;20.60;99.90;;;;;;5014697;28;20410;-69
2022/09/05 07:49:56;;;;;;;7.10;4.10;;;20.70;99.90;;;;;;5014946;28;20427;-69
2022/09/05 07:52:26;;;;;;;3.77;3.43;;;21.10;99.90;;;;;;5014749;28;20656;-69
2022/09/05 07:54:53;;;;;;;4.97;4.00;;;21.40;99.90;;;;;;5014889;28;20403;-69
2022/09/05 07:57:31;;;;;;;4.33;3.93;;;21.50;99.90;;;;;;5013532;28;20423;-69
2022/09/05 08:00:10;;;;;;;5.50;4.30;;;21.60;99.90;;;;;;5014798;28;20430;-69
2022/09/05 08:02:42;;;;;;;3.80;3.30;;;21.50;99.90;;;;;;5014341;28;20409;-69
2022/09/05 08:05:08;;;;;;;5.57;3.57;;;21.70;99.90;;;;;;5015126;28;20724;-69
2022/09/05 08:07:37;;;;;;;5.00;3.47;;;21.90;99.90;;;;;;5014313;28;20461;-69
2022/09/05 08:10:13;;;;;;;4.63;3.50;;;22.00;99.90;;;;;;5014165;28;20434;-69
2022/09/05 08:13:06;;;;;;;4.50;3.17;;;21.90;99.90;;;;;;5014098;28;20449;-69
2022/09/05 08:15:31;;;;;;;4.70;3.57;;;22.20;99.90;;;;;;5014317;28;20391;-69
2022/09/05 08:18:14;;;;;;;3.60;3.10;;;22.40;99.90;;;;;;5014594;28;20941;-69
2022/09/05 08:20:56;;;;;;;4.20;3.07;;;22.30;99.90;;;;;;5014182;28;20496;-69
2022/09/05 08:23:43;;;;;;;5.23;3.00;;;22.50;99.90;;;;;;5014370;28;20410;-70
2022/09/05 08:26:19;;;;;;;5.37;3.03;;;22.40;99.90;;;;;;5014143;28;20391;-69
2022/09/05 08:28:56;;;;;;;4.27;3.13;;;22.50;99.90;;;;;;5013471;28;20402;-70
2022/09/05 08:31:51;;;;;;;5.00;3.50;;;22.80;99.90;;;;;;5013774;28;20435;-68
2022/09/05 08:34:36;;;;;;;4.83;2.83;;;22.90;99.90;;;;;;5013852;28;20485;-69
2022/09/05 08:37:02;;;;;;;4.40;2.40;;;23.00;99.90;;;;;;5013963;28;20407;-68
2022/09/05 08:39:32;;;;;;;2.77;2.40;;;23.00;99.90;;;;;;5030994;22;20475;-68
2022/09/05 08:41:57;;;;;;;3.07;2.77;;;23.10;99.90;;;;;;5014960;28;20880;-68
2022/09/05 08:44:33;;;;;;;2.70;2.27;;;23.30;99.90;;;;;;5014867;28;20570;-68
2022/09/05 08:47:39;;;;;;;5.60;3.23;;;23.50;99.90;;;;;;5014912;28;20163;-68
2022/09/05 08:50:19;;;;;;;2.40;2.20;;;23.50;99.90;;;;;;5014436;28;20417;-68
2022/09/05 08:53:22;;;;;;;3.07;2.87;;;23.50;99.90;;;;;;5014414;28;20951;-67
2022/09/05 08:55:58;;;;;;;3.93;3.30;;;23.50;99.90;;;;;;5014094;28;20941;-68
2022/09/05 08:58:39;;;;;;;4.37;3.80;;;23.40;99.90;;;;;;5013294;28;20473;-67
2022/09/05 09:01:27;;;;;;;10.37;4.07;;;23.50;99.90;;;;;;5014465;28;20433;-68
2022/09/05 09:04:19;;;;;;;7.40;4.20;;;23.50;99.90;;;;;;5014859;28;20418;-68
2022/09/05 09:07:13;;;;;;;4.90;3.83;;;23.60;99.90;;;;;;5014540;28;20380;-68
2022/09/05 09:09:48;;;;;;;4.90;3.33;;;23.50;99.90;;;;;;5014142;28;20469;-69
2022/09/05 09:12:47;;;;;;;4.20;3.80;;;23.40;99.90;;;;;;5014176;28;20454;-70
2022/09/05 09:15:43;;;;;;;4.97;3.83;;;23.40;99.90;;;;;;5012409;28;20936;-69
2022/09/05 09:18:15;;;;;;;3.67;3.17;;;23.60;99.90;;;;;;5002051;28;20520;-69
2022/09/05 09:21:11;;;;;;;4.97;3.87;;;23.70;99.90;;;;;;5014170;28;20970;-68
2022/09/05 09:23:52;;;;;;;4.13;3.20;;;23.70;99.90;;;;;;5014154;28;20474;-69
2022/09/05 09:26:27;;;;;;;4.00;3.20;;;23.90;99.90;;;;;;5014044;28;20429;-68
2022/09/05 09:29:05;;;;;;;6.00;3.27;;;23.90;99.90;;;;;;5013610;28;20403;-68
2022/09/05 09:31:36;;;;;;;5.77;3.37;;;24.00;99.90;;;;;;5013952;28;20454;-69
2022/09/05 09:34:45;;;;;;;4.43;3.27;;;24.30;99.90;;;;;;5014040;28;20388;-68
2022/09/05 09:37:49;;;;;;;4.60;3.10;;;24.30;99.90;;;;;;4992337;28;20419;-68
2022/09/05 09:40:17;;;;;;;4.20;3.30;;;24.40;99.90;;;;;;4991816;28;20534;-68
2022/09/05 09:42:52;;;;;;;3.63;3.20;;;24.70;99.90;;;;;;5007674;28;20947;-68
2022/09/05 09:45:40;;;;;;;4.30;2.87;;;24.60;99.90;;;;;;5004506;28;20413;-69
2022/09/05 09:48:15;;;;;;;4.83;3.00;;;24.60;99.90;;;;;;5013690;28;20383;-68
2022/09/05 09:51:18;;;;;;;4.30;3.00;;;24.70;99.90;;;;;;5013603;28;20454;-68
2022/09/05 09:54:22;;;;;;;3.47;3.00;;;24.90;99.90;;;;;;4993884;28;20920;-67
2022/09/05 09:57:02;;;;;;;3.50;2.83;;;25.20;99.90;;;;;;4994070;28;20399;-70
2022/09/05 09:59:31;;;;;;;3.13;2.83;;;25.50;99.90;;;;;;4993531;28;20384;-69
2022/09/05 10:02:14;;;;;;;3.40;2.97;;;25.70;99.90;;;;;;5008803;28;20415;-69
2022/09/05 10:04:45;;;;;;;3.33;3.03;;;25.70;99.90;;;;;;4993994;28;20380;-69
2022/09/05 10:07:34;;;;;;;4.87;3.30;;;25.70;99.90;;;;;;4994123;28;20885;-69
2022/09/05 10:10:09;;;;;;;5.60;3.10;;;25.80;99.90;;;;;;4993399;28;20447;-69
2022/09/05 10:13:15;;;;;;;5.73;2.97;;;25.70;99.90;;;;;;4993419;28;20455;-69
2022/09/05 10:16:08;;;;;;;5.17;2.60;;;25.70;99.90;;;;;;4994196;28;20376;-69
2022/09/05 10:18:58;;;;;;;3.10;2.73;;;25.90;99.90;;;;;;4994207;28;20380;-67
2022/09/05 10:21:47;;;;;;;3.97;3.00;;;26.00;99.90;;;;;;5008687;28;20498;-69
2022/09/05 10:24:36;;;;;;;3.67;3.10;;;26.10;99.90;;;;;;5008715;28;20406;-69
2022/09/05 10:27:43;;;;;;;2.83;2.27;;;26.30;99.90;;;;;;4994324;28;20385;-69
2022/09/05 10:30:22;;;;;;;7.53;2.77;;;26.40;99.90;;;;;;4994309;28;20434;-69
2022/09/05 10:33:09;;;;;;;5.40;2.67;;;26.60;99.90;;;;;;5013371;28;20446;-68
2022/09/05 10:35:41;;;;;;;3.23;2.93;;;26.70;99.90;;;;;;5013734;28;20422;-69
2022/09/05 10:38:19;;;;;;;3.40;2.60;;;26.80;99.90;;;;;;5013439;28;20386;-69
2022/09/05 10:40:49;;;;;;;3.83;2.93;;;26.90;99.90;;;;;;5012707;28;20449;-69
2022/09/05 10:43:27;;;;;;;5.67;2.80;;;26.90;99.90;;;;;;5012943;28;20387;-69
2022/09/05 10:45:56;;;;;;;3.13;2.83;;;27.50;99.80;;;;;;5012089;28;20896;-68
2022/09/05 10:48:33;;;;;;;3.40;2.73;;;28.50;98.30;;;;;;5013488;28;20406;-67
2022/09/05 10:51:23;;;;;;;3.23;2.90;;;30.20;96.30;;;;;;5013044;28;20458;-68
2022/09/05 10:54:00;;;;;;;2.67;2.47;;;31.10;93.60;;;;;;5012943;28;20430;-68
2022/09/05 10:56:36;;;;;;;4.07;2.27;;;32.70;87.00;;;;;;5016592;28;20395;-67
2022/09/05 10:59:15;;;;;;;3.80;2.10;;;34.00;82.70;;;;;;5014298;28;20430;-68
2022/09/05 11:02:01;;;;;;;2.40;2.20;;;34.10;77.70;;;;;;5017045;28;20474;-68
2022/09/05 11:04:48;;;;;;;3.17;2.83;;;35.20;74.10;;;;;;5016972;28;20390;-68
2022/09/05 11:07:18;;;;;;;5.30;2.13;;;34.80;72.10;;;;;;5016792;28;20479;-69
2022/09/05 11:09:50;;;;;;;3.57;2.33;;;35.70;67.00;;;;;;5016603;28;20518;-69
2022/09/05 11:12:25;;;;;;;2.37;2.17;;;35.50;65.30;;;;;;5016789;28;20446;-69
2022/09/05 11:14:52;;;;;;;2.97;2.67;;;36.10;62.60;;;;;;5016644;28;20386;-69
2022/09/05 11:17:39;;;;;;;3.30;1.90;;;36.50;62.30;;;;;;5016641;28;20407;-68
2022/09/05 11:20:29;;;;;;;2.93;1.80;;;37.90;57.00;;;;;;5016618;28;20487;-69
2022/09/05 11:23:10;;;;;;;1.90;1.70;;;37.80;56.90;;;;;;5016455;28;20403;-68
2022/09/05 11:25:38;;;;;;;1.93;1.83;;;37.30;55.90;;;;;;5016640;28;20399;-69
2022/09/05 11:28:13;;;;;;;1.93;1.70;;;36.60;56.30;;;;;;5015891;28;20411;-69
2022/09/05 11:30:42;;;;;;;2.27;1.90;;;37.80;55.00;;;;;;5016717;28;20422;-68
2022/09/05 11:33:28;;;;;;;3.07;1.73;;;39.00;52.10;;;;;;5015900;28;20465;-68
2022/09/05 11:36:09;;;;;;;3.90;2.03;;;36.70;54.80;;;;;;5016758;28;20748;-68
2022/09/05 11:39:05;;;;;;;3.40;1.90;;;36.30;55.60;;;;;;5016268;28;20809;-70
2022/09/05 11:42:09;;;;;;;3.67;2.00;;;36.70;55.20;;;;;;5015632;28;20454;-69
2022/09/05 11:44:49;;;;;;;2.00;1.83;;;37.60;52.80;;;;;;4982234;28;20509;-69
2022/09/05 11:47:59;;;;;;;2.33;2.00;;;37.80;52.20;;;;;;5015596;28;20417;-69
2022/09/05 11:50:25;;;;;;;1.93;1.77;;;37.60;50.70;;;;;;5015747;28;20422;-69
2022/09/05 11:53:06;;;;;;;1.77;1.67;;;36.70;51.90;;;;;;5015487;28;20522;-69
2022/09/05 11:55:42;;;;;;;2.13;1.80;;;37.00;52.60;;;;;;5015995;28;20160;-69
2022/09/05 11:58:26;;;;;;;1.80;1.47;;;37.00;53.70;;;;;;5014646;28;20415;-69
2022/09/05 12:01:06;;;;;;;2.30;2.10;;;37.90;51.80;;;;;;5015342;28;20486;-69
2022/09/05 12:03:57;;;;;;;3.13;1.83;;;37.20;52.10;;;;;;5014127;28;20460;-69
2022/09/05 12:06:49;;;;;;;3.43;2.00;;;36.70;52.90;;;;;;5015338;28;20985;-69
2022/09/05 12:09:27;;;;;;;2.03;1.80;;;36.40;51.80;;;;;;5016207;28;20810;-69
2022/09/05 12:12:30;;;;;;;2.37;2.17;;;36.80;51.70;;;;;;5015391;28;20467;-69
2022/09/05 12:15:32;;;;;;;2.70;1.90;;;36.90;51.00;;;;;;5015096;28;20398;-69
2022/09/05 12:18:04;;;;;;;2.40;2.20;;;37.60;49.60;;;;;;5015359;28;20397;-69
2022/09/05 12:21:00;;;;;;;2.10;1.90;;;38.40;48.10;;;;;;5015178;28;20415;-69
2022/09/05 12:23:39;;;;;;;2.00;1.80;;;38.70;47.80;;;;;;5015503;28;20890;-68
2022/09/05 12:26:15;;;;;;;3.20;1.70;;;39.80;47.20;;;;;;5015262;28;20383;-69
2022/09/05 12:29:09;;;;;;;4.87;2.20;;;38.20;47.70;;;;;;5014619;28;20500;-69
2022/09/05 12:31:40;;;;;;;2.30;1.80;;;38.60;47.60;;;;;;5012596;28;20952;-69
2022/09/05 12:34:17;;;;;;;3.53;2.17;;;35.00;52.30;;;;;;5015085;28;20391;-69
2022/09/05 12:36:48;;;;;;;4.53;1.90;;;33.90;54.40;;;;;;5009626;28;20419;-69
2022/09/05 12:39:29;;;;;;;1.97;1.70;;;35.80;53.50;;;;;;5002146;28;20782;-69
2022/09/05 12:42:13;;;;;;;1.97;1.87;;;37.60;50.10;;;;;;4995128;28;20467;-68
2022/09/05 12:44:45;;;;;;;5.27;4.87;;;38.70;48.80;;;;;;4995253;28;20384;-70
2022/09/05 12:47:19;;;;;;;2.33;2.13;;;38.50;49.20;;;;;;4995455;28;20400;-68
2022/09/05 12:50:00;;;;;;;1.87;1.73;;;38.60;48.80;;;;;;4995141;28;20916;-70
2022/09/05 12:52:32;;;;;;;3.73;1.90;;;40.10;45.60;;;;;;4995126;28;20451;-68
2022/09/05 12:55:08;;;;;;;1.87;1.77;;;40.30;44.60;;;;;;4994759;28;20388;-69
2022/09/05 12:57:38;;;;;;;1.87;1.77;;;38.20;47.20;;;;;;4996427;28;20384;-69
2022/09/05 13:00:14;;;;;;;1.70;1.60;;;37.60;48.40;;;;;;5014203;28;20423;-68
2022/09/05 13:02:45;;;;;;;2.80;1.97;;;38.60;46.70;;;;;;5014655;28;20425;-68
2022/09/05 13:05:24;;;;;;;2.53;1.87;;;37.90;48.40;;;;;;5014801;28;20395;-69
2022/09/05 13:07:55;;;;;;;1.87;1.70;;;39.30;46.70;;;;;;5014558;28;20469;-70
2022/09/05 13:10:29;;;;;;;3.00;1.70;;;40.20;44.00;;;;;;5013166;28;21018;-70
2022/09/05 13:12:57;;;;;;;4.60;1.70;;;39.60;43.60;;;;;;5014219;28;20438;-70
2022/09/05 13:15:35;;;;;;;1.83;1.73;;;40.20;43.00;;;;;;5014637;28;20991;-70
2022/09/05 13:18:03;;;;;;;2.70;1.67;;;40.10;43.50;;;;;;5013626;28;20394;-69
2022/09/05 13:20:34;;;;;;;2.13;1.70;;;40.10;43.40;;;;;;5014485;28;20423;-69
2022/09/05 13:23:04;;;;;;;2.60;1.80;;;39.60;43.20;;;;;;5014295;28;20383;-69
2022/09/05 13:25:32;;;;;;;1.80;1.50;;;39.70;43.70;;;;;;5014584;28;20803;-70
2022/09/05 13:28:05;;;;;;;1.53;1.43;;;39.90;42.90;;;;;;5013944;28;20497;-68
2022/09/05 13:30:36;;;;;;;3.70;1.93;;;39.80;42.80;;;;;;5013927;28;20748;-69
2022/09/05 13:33:36;;;;;;;2.00;1.47;;;38.60;45.10;;;;;;5013661;28;20438;-69
2022/09/05 13:36:07;;;;;;;1.50;1.40;;;38.50;44.50;;;;;;4991778;28;20473;-69
2022/09/05 13:38:42;;;;;;;2.80;2.00;;;39.00;44.70;;;;;;5014277;28;20386;-69
2022/09/05 13:41:20;;;;;;;2.00;1.90;;;38.80;43.80;;;;;;5013561;28;20950;-68
2022/09/05 13:43:46;;;;;;;2.03;1.83;;;38.30;44.20;;;;;;5013802;28;20927;-69
2022/09/05 13:46:19;;;;;;;2.20;2.00;;;39.10;45.10;;;;;;5013770;28;20415;-69
2022/09/05 13:48:57;;;;;;;2.03;1.83;;;39.60;44.00;;;;;;5013946;28;20171;-69
2022/09/05 13:51:39;;;;;;;2.23;1.87;;;40.00;41.80;;;;;;5013725;28;20430;-69
2022/09/05 13:54:11;;;;;;;1.90;1.80;;;40.00;42.10;;;;;;5013781;28;20387;-69
2022/09/05 13:57:03;;;;;;;4.17;1.90;;;39.70;43.20;;;;;;5013165;28;20382;-68
2022/09/05 13:59:39;;;;;;;2.83;1.80;;;40.00;42.20;;;;;;5012486;28;20415;-68
2022/09/05 14:02:25;;;;;;;1.50;1.40;;;39.90;41.60;;;;;;5013470;28;20386;-70
2022/09/05 14:05:12;;;;;;;2.50;1.73;;;40.30;39.40;;;;;;5013722;28;20922;-69
2022/09/05 14:07:52;;;;;;;2.10;1.90;;;41.20;38.90;;;;;;5013934;28;20387;-69